sensor_id;sensor_type;location;lat;lon;timestamp;P1;durP1;ratioP1;P2;durP2;ratioP2
19183;SDS011;9724;51.194;6.856;2023-07-16T00:01:52;4.30;;;2.03;;
19183;SDS011;9724;51.194;6.856;2023-07-16T00:04:18;5.00;;;1.87;;
19183;SDS011;9724;51.194;6.856;2023-07-16T00:06:46;5.37;;;1.93;;
19183;SDS011;9724;51.194;6.856;2023-07-16T00:09:12;3.33;;;1.90;;
19183;SDS011;9724;51.194;6.856;2023-07-16T00:11:38;2.57;;;1.90;;
19183;SDS011;9724;51.194;6.856;2023-07-16T00:14:04;9.17;;;2.70;;
19183;SDS011;9724;51.194;6.856;2023-07-16T00:16:31;5.73;;;2.03;;
19183;SDS011;9724;51.194;6.856;2023-07-16T00:18:57;7.33;;;1.93;;
19183;SDS011;9724;51.194;6.856;2023-07-16T00:21:24;4.90;;;1.77;;
19183;SDS011;9724;51.194;6.856;2023-07-16T00:23:51;7.50;;;2.20;;
19183;SDS011;9724;51.194;6.856;2023-07-16T00:26:17;7.50;;;2.33;;
19183;SDS011;9724;51.194;6.856;2023-07-16T00:28:44;5.30;;;2.10;;
19183;SDS011;9724;51.194;6.856;2023-07-16T00:31:10;5.13;;;2.00;;
19183;SDS011;9724;51.194;6.856;2023-07-16T00:33:36;6.07;;;2.43;;
19183;SDS011;9724;51.194;6.856;2023-07-16T00:36:03;6.33;;;1.87;;
19183;SDS011;9724;51.194;6.856;2023-07-16T00:38:29;4.20;;;1.90;;
19183;SDS011;9724;51.194;6.856;2023-07-16T00:40:56;10.80;;;1.80;;
19183;SDS011;9724;51.194;6.856;2023-07-16T00:43:23;5.27;;;2.00;;
19183;SDS011;9724;51.194;6.856;2023-07-16T00:45:49;5.90;;;2.03;;
19183;SDS011;9724;51.194;6.856;2023-07-16T00:48:15;2.73;;;1.93;;
19183;SDS011;9724;51.194;6.856;2023-07-16T00:50:42;8.67;;;2.30;;
19183;SDS011;9724;51.194;6.856;2023-07-16T00:53:08;10.50;;;2.10;;
19183;SDS011;9724;51.194;6.856;2023-07-16T00:55:35;4.63;;;1.90;;
19183;SDS011;9724;51.194;6.856;2023-07-16T00:58:03;10.63;;;2.33;;
19183;SDS011;9724;51.194;6.856;2023-07-16T01:00:31;7.53;;;2.30;;
19183;SDS011;9724;51.194;6.856;2023-07-16T01:02:57;5.87;;;2.13;;
19183;SDS011;9724;51.194;6.856;2023-07-16T01:05:23;7.37;;;2.07;;
19183;SDS011;9724;51.194;6.856;2023-07-16T01:07:52;6.23;;;2.50;;
19183;SDS011;9724;51.194;6.856;2023-07-16T01:10:20;6.47;;;2.17;;
19183;SDS011;9724;51.194;6.856;2023-07-16T01:12:48;4.53;;;2.17;;
19183;SDS011;9724;51.194;6.856;2023-07-16T01:15:16;8.57;;;2.30;;
19183;SDS011;9724;51.194;6.856;2023-07-16T01:17:42;4.23;;;1.90;;
19183;SDS011;9724;51.194;6.856;2023-07-16T01:20:09;4.37;;;2.40;;
19183;SDS011;9724;51.194;6.856;2023-07-16T01:22:48;8.30;;;2.33;;
19183;SDS011;9724;51.194;6.856;2023-07-16T01:28:23;5.03;;;2.33;;
19183;SDS011;9724;51.194;6.856;2023-07-16T01:30:59;14.90;;;2.47;;
19183;SDS011;9724;51.194;6.856;2023-07-16T01:33:25;5.90;;;2.43;;
19183;SDS011;9724;51.194;6.856;2023-07-16T01:35:51;10.33;;;2.10;;
19183;SDS011;9724;51.194;6.856;2023-07-16T01:38:18;7.43;;;2.20;;
19183;SDS011;9724;51.194;6.856;2023-07-16T01:40:46;4.80;;;1.83;;
19183;SDS011;9724;51.194;6.856;2023-07-16T01:43:13;6.40;;;1.97;;
19183;SDS011;9724;51.194;6.856;2023-07-16T01:45:39;6.90;;;2.10;;
19183;SDS011;9724;51.194;6.856;2023-07-16T01:48:09;7.77;;;1.90;;
19183;SDS011;9724;51.194;6.856;2023-07-16T01:50:40;4.27;;;1.90;;
19183;SDS011;9724;51.194;6.856;2023-07-16T01:53:07;9.43;;;2.27;;
19183;SDS011;9724;51.194;6.856;2023-07-16T01:55:33;4.37;;;2.13;;
19183;SDS011;9724;51.194;6.856;2023-07-16T01:57:59;7.80;;;2.00;;
19183;SDS011;9724;51.194;6.856;2023-07-16T02:00:26;8.20;;;2.10;;
19183;SDS011;9724;51.194;6.856;2023-07-16T02:02:52;6.27;;;1.90;;
19183;SDS011;9724;51.194;6.856;2023-07-16T02:05:19;6.00;;;2.10;;
19183;SDS011;9724;51.194;6.856;2023-07-16T02:07:45;6.07;;;2.20;;
19183;SDS011;9724;51.194;6.856;2023-07-16T02:10:12;10.43;;;1.93;;
19183;SDS011;9724;51.194;6.856;2023-07-16T02:12:38;5.23;;;2.40;;
19183;SDS011;9724;51.194;6.856;2023-07-16T02:15:05;5.73;;;1.87;;
19183;SDS011;9724;51.194;6.856;2023-07-16T02:17:32;9.40;;;1.83;;
19183;SDS011;9724;51.194;6.856;2023-07-16T02:19:58;7.30;;;1.80;;
19183;SDS011;9724;51.194;6.856;2023-07-16T02:22:25;6.17;;;1.80;;
19183;SDS011;9724;51.194;6.856;2023-07-16T02:24:51;3.50;;;1.77;;
19183;SDS011;9724;51.194;6.856;2023-07-16T02:27:18;4.80;;;2.07;;
19183;SDS011;9724;51.194;6.856;2023-07-16T02:29:45;4.50;;;2.10;;
19183;SDS011;9724;51.194;6.856;2023-07-16T02:32:12;6.97;;;2.00;;
19183;SDS011;9724;51.194;6.856;2023-07-16T02:34:38;4.73;;;1.70;;
19183;SDS011;9724;51.194;6.856;2023-07-16T02:37:04;5.70;;;1.90;;
19183;SDS011;9724;51.194;6.856;2023-07-16T02:39:32;9.37;;;2.10;;
19183;SDS011;9724;51.194;6.856;2023-07-16T02:41:58;5.20;;;1.93;;
19183;SDS011;9724;51.194;6.856;2023-07-16T02:44:24;3.37;;;1.70;;
19183;SDS011;9724;51.194;6.856;2023-07-16T02:46:51;5.60;;;2.03;;
19183;SDS011;9724;51.194;6.856;2023-07-16T02:49:17;7.90;;;1.97;;
19183;SDS011;9724;51.194;6.856;2023-07-16T02:51:43;8.23;;;2.20;;
19183;SDS011;9724;51.194;6.856;2023-07-16T02:54:10;8.67;;;2.33;;
19183;SDS011;9724;51.194;6.856;2023-07-16T02:56:37;10.27;;;2.27;;
19183;SDS011;9724;51.194;6.856;2023-07-16T02:59:03;10.87;;;1.87;;
19183;SDS011;9724;51.194;6.856;2023-07-16T03:01:29;11.53;;;2.13;;
19183;SDS011;9724;51.194;6.856;2023-07-16T03:03:56;6.50;;;2.20;;
19183;SDS011;9724;51.194;6.856;2023-07-16T03:06:22;5.80;;;1.90;;
19183;SDS011;9724;51.194;6.856;2023-07-16T03:08:49;3.40;;;1.83;;
19183;SDS011;9724;51.194;6.856;2023-07-16T03:11:15;8.27;;;2.13;;
19183;SDS011;9724;51.194;6.856;2023-07-16T03:13:42;7.30;;;2.37;;
19183;SDS011;9724;51.194;6.856;2023-07-16T03:16:08;12.33;;;2.10;;
19183;SDS011;9724;51.194;6.856;2023-07-16T03:18:35;5.03;;;1.90;;
19183;SDS011;9724;51.194;6.856;2023-07-16T03:21:02;9.30;;;2.40;;
19183;SDS011;9724;51.194;6.856;2023-07-16T03:23:28;8.03;;;2.43;;
19183;SDS011;9724;51.194;6.856;2023-07-16T03:25:55;6.80;;;2.30;;
19183;SDS011;9724;51.194;6.856;2023-07-16T03:28:21;9.10;;;2.13;;
19183;SDS011;9724;51.194;6.856;2023-07-16T03:30:49;12.73;;;2.33;;
19183;SDS011;9724;51.194;6.856;2023-07-16T03:33:16;5.00;;;2.40;;
19183;SDS011;9724;51.194;6.856;2023-07-16T03:35:43;7.97;;;2.70;;
19183;SDS011;9724;51.194;6.856;2023-07-16T03:38:09;6.33;;;2.53;;
19183;SDS011;9724;51.194;6.856;2023-07-16T03:40:36;11.20;;;2.73;;
19183;SDS011;9724;51.194;6.856;2023-07-16T03:43:02;13.47;;;2.70;;
19183;SDS011;9724;51.194;6.856;2023-07-16T03:45:29;5.73;;;2.20;;
19183;SDS011;9724;51.194;6.856;2023-07-16T03:47:55;6.63;;;2.43;;
19183;SDS011;9724;51.194;6.856;2023-07-16T03:50:22;12.40;;;2.17;;
19183;SDS011;9724;51.194;6.856;2023-07-16T03:52:48;6.57;;;2.43;;
19183;SDS011;9724;51.194;6.856;2023-07-16T03:55:14;9.23;;;2.20;;
19183;SDS011;9724;51.194;6.856;2023-07-16T03:57:41;9.00;;;2.30;;
19183;SDS011;9724;51.194;6.856;2023-07-16T04:00:08;5.97;;;1.90;;
19183;SDS011;9724;51.194;6.856;2023-07-16T04:02:35;7.77;;;2.23;;
19183;SDS011;9724;51.194;6.856;2023-07-16T04:05:03;6.23;;;2.10;;
19183;SDS011;9724;51.194;6.856;2023-07-16T04:07:29;10.50;;;2.03;;
19183;SDS011;9724;51.194;6.856;2023-07-16T04:09:56;5.27;;;2.20;;
19183;SDS011;9724;51.194;6.856;2023-07-16T04:12:22;6.77;;;2.20;;
19183;SDS011;9724;51.194;6.856;2023-07-16T04:14:48;5.90;;;2.43;;
19183;SDS011;9724;51.194;6.856;2023-07-16T04:17:17;16.17;;;2.37;;
19183;SDS011;9724;51.194;6.856;2023-07-16T04:19:43;5.30;;;2.30;;
19183;SDS011;9724;51.194;6.856;2023-07-16T04:22:10;8.87;;;2.53;;
19183;SDS011;9724;51.194;6.856;2023-07-16T04:24:36;7.53;;;2.10;;
19183;SDS011;9724;51.194;6.856;2023-07-16T04:27:03;7.07;;;2.23;;
19183;SDS011;9724;51.194;6.856;2023-07-16T04:29:29;7.77;;;2.60;;
19183;SDS011;9724;51.194;6.856;2023-07-16T04:31:55;8.27;;;2.20;;
19183;SDS011;9724;51.194;6.856;2023-07-16T04:34:22;5.30;;;2.23;;
19183;SDS011;9724;51.194;6.856;2023-07-16T04:36:48;7.53;;;2.37;;
19183;SDS011;9724;51.194;6.856;2023-07-16T04:39:15;9.73;;;2.73;;
19183;SDS011;9724;51.194;6.856;2023-07-16T04:41:41;4.40;;;1.97;;
19183;SDS011;9724;51.194;6.856;2023-07-16T04:44:08;10.37;;;2.50;;
19183;SDS011;9724;51.194;6.856;2023-07-16T04:46:34;8.30;;;2.60;;
19183;SDS011;9724;51.194;6.856;2023-07-16T04:49:01;6.67;;;2.10;;
19183;SDS011;9724;51.194;6.856;2023-07-16T04:51:27;10.50;;;2.37;;
19183;SDS011;9724;51.194;6.856;2023-07-16T04:53:53;4.63;;;2.20;;
19183;SDS011;9724;51.194;6.856;2023-07-16T04:56:20;9.47;;;2.57;;
19183;SDS011;9724;51.194;6.856;2023-07-16T04:58:46;9.17;;;2.57;;
19183;SDS011;9724;51.194;6.856;2023-07-16T05:01:13;10.47;;;2.70;;
19183;SDS011;9724;51.194;6.856;2023-07-16T05:03:39;14.23;;;2.47;;
19183;SDS011;9724;51.194;6.856;2023-07-16T05:06:06;10.00;;;3.03;;
19183;SDS011;9724;51.194;6.856;2023-07-16T05:08:32;9.63;;;2.27;;
19183;SDS011;9724;51.194;6.856;2023-07-16T05:10:59;7.90;;;2.30;;
19183;SDS011;9724;51.194;6.856;2023-07-16T05:13:26;10.30;;;2.60;;
19183;SDS011;9724;51.194;6.856;2023-07-16T05:15:52;7.97;;;2.70;;
19183;SDS011;9724;51.194;6.856;2023-07-16T05:18:18;9.77;;;2.60;;
19183;SDS011;9724;51.194;6.856;2023-07-16T05:20:46;8.77;;;2.53;;
19183;SDS011;9724;51.194;6.856;2023-07-16T05:23:12;7.97;;;2.60;;
19183;SDS011;9724;51.194;6.856;2023-07-16T05:25:39;3.87;;;2.10;;
19183;SDS011;9724;51.194;6.856;2023-07-16T05:28:11;5.47;;;2.17;;
19183;SDS011;9724;51.194;6.856;2023-07-16T05:30:38;14.40;;;3.67;;
19183;SDS011;9724;51.194;6.856;2023-07-16T05:33:08;7.13;;;2.43;;
19183;SDS011;9724;51.194;6.856;2023-07-16T05:35:35;9.23;;;2.47;;
19183;SDS011;9724;51.194;6.856;2023-07-16T05:38:01;7.77;;;2.73;;
19183;SDS011;9724;51.194;6.856;2023-07-16T05:40:27;5.30;;;2.30;;
19183;SDS011;9724;51.194;6.856;2023-07-16T05:42:54;8.27;;;2.30;;
19183;SDS011;9724;51.194;6.856;2023-07-16T05:45:21;9.50;;;2.50;;
19183;SDS011;9724;51.194;6.856;2023-07-16T05:47:49;5.47;;;2.77;;
19183;SDS011;9724;51.194;6.856;2023-07-16T05:50:16;5.13;;;2.63;;
19183;SDS011;9724;51.194;6.856;2023-07-16T05:52:42;13.40;;;3.00;;
19183;SDS011;9724;51.194;6.856;2023-07-16T05:55:09;8.23;;;2.97;;
19183;SDS011;9724;51.194;6.856;2023-07-16T05:57:35;5.50;;;3.20;;
19183;SDS011;9724;51.194;6.856;2023-07-16T06:00:02;11.83;;;3.33;;
19183;SDS011;9724;51.194;6.856;2023-07-16T06:02:32;8.97;;;3.23;;
19183;SDS011;9724;51.194;6.856;2023-07-16T06:04:59;6.70;;;3.50;;
19183;SDS011;9724;51.194;6.856;2023-07-16T06:07:26;10.97;;;2.90;;
19183;SDS011;9724;51.194;6.856;2023-07-16T06:09:56;11.87;;;2.83;;
19183;SDS011;9724;51.194;6.856;2023-07-16T06:12:22;10.77;;;3.80;;
19183;SDS011;9724;51.194;6.856;2023-07-16T06:14:49;9.57;;;3.17;;
19183;SDS011;9724;51.194;6.856;2023-07-16T06:17:15;13.17;;;3.63;;
19183;SDS011;9724;51.194;6.856;2023-07-16T06:19:42;11.33;;;3.43;;
19183;SDS011;9724;51.194;6.856;2023-07-16T06:22:09;5.83;;;3.03;;
19183;SDS011;9724;51.194;6.856;2023-07-16T06:24:35;8.57;;;3.10;;
19183;SDS011;9724;51.194;6.856;2023-07-16T06:27:02;8.20;;;3.97;;
19183;SDS011;9724;51.194;6.856;2023-07-16T06:29:30;8.17;;;3.33;;
19183;SDS011;9724;51.194;6.856;2023-07-16T06:31:57;4.70;;;3.20;;
19183;SDS011;9724;51.194;6.856;2023-07-16T06:34:24;9.13;;;3.33;;
19183;SDS011;9724;51.194;6.856;2023-07-16T06:36:51;11.80;;;3.80;;
19183;SDS011;9724;51.194;6.856;2023-07-16T06:39:18;10.53;;;3.97;;
19183;SDS011;9724;51.194;6.856;2023-07-16T06:41:44;15.33;;;4.10;;
19183;SDS011;9724;51.194;6.856;2023-07-16T06:44:10;6.13;;;3.60;;
19183;SDS011;9724;51.194;6.856;2023-07-16T06:46:37;10.13;;;3.73;;
19183;SDS011;9724;51.194;6.856;2023-07-16T06:49:05;7.77;;;3.97;;
19183;SDS011;9724;51.194;6.856;2023-07-16T06:51:33;12.03;;;4.00;;
19183;SDS011;9724;51.194;6.856;2023-07-16T06:53:59;10.83;;;3.70;;
19183;SDS011;9724;51.194;6.856;2023-07-16T06:56:42;10.10;;;4.00;;
19183;SDS011;9724;51.194;6.856;2023-07-16T06:59:09;14.23;;;4.00;;
19183;SDS011;9724;51.194;6.856;2023-07-16T07:01:35;9.43;;;3.80;;
19183;SDS011;9724;51.194;6.856;2023-07-16T07:04:02;10.27;;;3.90;;
19183;SDS011;9724;51.194;6.856;2023-07-16T07:06:28;10.27;;;3.80;;
19183;SDS011;9724;51.194;6.856;2023-07-16T07:08:55;10.70;;;3.83;;
19183;SDS011;9724;51.194;6.856;2023-07-16T07:11:21;11.07;;;4.40;;
19183;SDS011;9724;51.194;6.856;2023-07-16T07:13:48;10.97;;;4.03;;
19183;SDS011;9724;51.194;6.856;2023-07-16T07:16:15;9.43;;;3.93;;
19183;SDS011;9724;51.194;6.856;2023-07-16T07:18:42;9.40;;;4.43;;
19183;SDS011;9724;51.194;6.856;2023-07-16T07:21:09;15.07;;;4.30;;
19183;SDS011;9724;51.194;6.856;2023-07-16T07:23:35;13.40;;;4.40;;
19183;SDS011;9724;51.194;6.856;2023-07-16T07:26:01;10.43;;;3.73;;
19183;SDS011;9724;51.194;6.856;2023-07-16T07:28:28;12.13;;;4.07;;
19183;SDS011;9724;51.194;6.856;2023-07-16T07:30:55;8.50;;;4.23;;
19183;SDS011;9724;51.194;6.856;2023-07-16T07:33:21;9.80;;;4.00;;
19183;SDS011;9724;51.194;6.856;2023-07-16T07:35:48;8.07;;;4.07;;
19183;SDS011;9724;51.194;6.856;2023-07-16T07:38:14;11.77;;;3.70;;
19183;SDS011;9724;51.194;6.856;2023-07-16T07:40:42;8.10;;;4.07;;
19183;SDS011;9724;51.194;6.856;2023-07-16T07:43:08;16.20;;;4.00;;
19183;SDS011;9724;51.194;6.856;2023-07-16T07:45:35;8.73;;;3.70;;
19183;SDS011;9724;51.194;6.856;2023-07-16T07:48:02;10.00;;;4.57;;
19183;SDS011;9724;51.194;6.856;2023-07-16T07:50:29;10.80;;;4.00;;
19183;SDS011;9724;51.194;6.856;2023-07-16T07:52:56;10.63;;;3.93;;
19183;SDS011;9724;51.194;6.856;2023-07-16T07:55:22;8.17;;;4.03;;
19183;SDS011;9724;51.194;6.856;2023-07-16T07:57:49;10.90;;;3.90;;
19183;SDS011;9724;51.194;6.856;2023-07-16T08:00:15;9.20;;;4.63;;
19183;SDS011;9724;51.194;6.856;2023-07-16T08:02:42;8.23;;;4.47;;
19183;SDS011;9724;51.194;6.856;2023-07-16T08:05:09;9.67;;;3.60;;
19183;SDS011;9724;51.194;6.856;2023-07-16T08:07:35;11.13;;;4.10;;
19183;SDS011;9724;51.194;6.856;2023-07-16T08:10:02;7.13;;;3.80;;
19183;SDS011;9724;51.194;6.856;2023-07-16T08:12:29;9.17;;;4.17;;
19183;SDS011;9724;51.194;6.856;2023-07-16T08:14:56;7.87;;;3.87;;
19183;SDS011;9724;51.194;6.856;2023-07-16T08:17:22;10.40;;;3.50;;
19183;SDS011;9724;51.194;6.856;2023-07-16T08:19:49;6.60;;;3.90;;
19183;SDS011;9724;51.194;6.856;2023-07-16T08:22:16;8.20;;;3.37;;
19183;SDS011;9724;51.194;6.856;2023-07-16T08:24:43;7.03;;;3.63;;
19183;SDS011;9724;51.194;6.856;2023-07-16T08:27:09;5.93;;;4.03;;
19183;SDS011;9724;51.194;6.856;2023-07-16T08:29:36;7.17;;;3.63;;
19183;SDS011;9724;51.194;6.856;2023-07-16T08:32:02;7.60;;;4.00;;
19183;SDS011;9724;51.194;6.856;2023-07-16T08:34:29;7.73;;;3.90;;
19183;SDS011;9724;51.194;6.856;2023-07-16T08:36:55;7.30;;;3.73;;
19183;SDS011;9724;51.194;6.856;2023-07-16T08:39:22;6.90;;;3.50;;
19183;SDS011;9724;51.194;6.856;2023-07-16T08:41:51;7.00;;;3.30;;
19183;SDS011;9724;51.194;6.856;2023-07-16T08:44:18;8.27;;;4.07;;
19183;SDS011;9724;51.194;6.856;2023-07-16T08:46:45;11.67;;;3.97;;
19183;SDS011;9724;51.194;6.856;2023-07-16T08:49:11;3.83;;;3.33;;
19183;SDS011;9724;51.194;6.856;2023-07-16T08:51:38;9.27;;;3.80;;
19183;SDS011;9724;51.194;6.856;2023-07-16T08:54:04;8.50;;;4.17;;
19183;SDS011;9724;51.194;6.856;2023-07-16T08:56:32;5.90;;;3.50;;
19183;SDS011;9724;51.194;6.856;2023-07-16T08:58:58;6.80;;;3.40;;
19183;SDS011;9724;51.194;6.856;2023-07-16T09:01:25;6.37;;;3.43;;
19183;SDS011;9724;51.194;6.856;2023-07-16T09:03:51;8.40;;;3.80;;
19183;SDS011;9724;51.194;6.856;2023-07-16T09:06:18;6.70;;;3.57;;
19183;SDS011;9724;51.194;6.856;2023-07-16T09:08:45;8.53;;;3.63;;
19183;SDS011;9724;51.194;6.856;2023-07-16T09:11:11;9.67;;;3.70;;
19183;SDS011;9724;51.194;6.856;2023-07-16T09:13:43;8.50;;;3.73;;
19183;SDS011;9724;51.194;6.856;2023-07-16T09:16:10;10.40;;;3.83;;
19183;SDS011;9724;51.194;6.856;2023-07-16T09:18:39;7.73;;;3.40;;
19183;SDS011;9724;51.194;6.856;2023-07-16T09:21:08;9.23;;;3.60;;
19183;SDS011;9724;51.194;6.856;2023-07-16T09:23:35;8.20;;;3.57;;
19183;SDS011;9724;51.194;6.856;2023-07-16T09:26:02;9.30;;;3.63;;
19183;SDS011;9724;51.194;6.856;2023-07-16T09:28:30;7.33;;;3.53;;
19183;SDS011;9724;51.194;6.856;2023-07-16T09:31:02;8.03;;;3.80;;
19183;SDS011;9724;51.194;6.856;2023-07-16T09:33:30;7.63;;;3.40;;
19183;SDS011;9724;51.194;6.856;2023-07-16T09:35:57;6.97;;;3.33;;
19183;SDS011;9724;51.194;6.856;2023-07-16T09:38:24;3.53;;;3.17;;
19183;SDS011;9724;51.194;6.856;2023-07-16T09:40:53;6.83;;;3.50;;
19183;SDS011;9724;51.194;6.856;2023-07-16T09:43:21;6.17;;;3.13;;
19183;SDS011;9724;51.194;6.856;2023-07-16T09:45:47;6.63;;;3.30;;
19183;SDS011;9724;51.194;6.856;2023-07-16T09:48:15;5.07;;;3.33;;
19183;SDS011;9724;51.194;6.856;2023-07-16T09:50:42;7.83;;;3.60;;
19183;SDS011;9724;51.194;6.856;2023-07-16T09:53:12;7.80;;;3.43;;
19183;SDS011;9724;51.194;6.856;2023-07-16T09:55:38;7.10;;;3.73;;
19183;SDS011;9724;51.194;6.856;2023-07-16T09:58:06;4.90;;;3.30;;
19183;SDS011;9724;51.194;6.856;2023-07-16T10:00:34;6.13;;;3.83;;
19183;SDS011;9724;51.194;6.856;2023-07-16T10:03:02;4.97;;;3.50;;
19183;SDS011;9724;51.194;6.856;2023-07-16T10:05:35;10.57;;;3.37;;
19183;SDS011;9724;51.194;6.856;2023-07-16T10:08:02;5.93;;;3.23;;
19183;SDS011;9724;51.194;6.856;2023-07-16T10:10:37;4.30;;;3.13;;
19183;SDS011;9724;51.194;6.856;2023-07-16T10:13:06;6.87;;;3.40;;
19183;SDS011;9724;51.194;6.856;2023-07-16T10:15:33;9.27;;;3.40;;
19183;SDS011;9724;51.194;6.856;2023-07-16T10:17:59;9.70;;;3.13;;
19183;SDS011;9724;51.194;6.856;2023-07-16T10:20:29;4.40;;;2.80;;
19183;SDS011;9724;51.194;6.856;2023-07-16T10:22:57;3.30;;;2.37;;
19183;SDS011;9724;51.194;6.856;2023-07-16T10:25:24;4.80;;;2.97;;
19183;SDS011;9724;51.194;6.856;2023-07-16T10:27:52;8.13;;;3.30;;
19183;SDS011;9724;51.194;6.856;2023-07-16T10:30:19;4.60;;;2.90;;
19183;SDS011;9724;51.194;6.856;2023-07-16T10:32:46;6.70;;;3.20;;
19183;SDS011;9724;51.194;6.856;2023-07-16T10:35:12;7.57;;;3.37;;
19183;SDS011;9724;51.194;6.856;2023-07-16T10:37:40;6.17;;;3.30;;
19183;SDS011;9724;51.194;6.856;2023-07-16T10:40:10;8.27;;;3.50;;
19183;SDS011;9724;51.194;6.856;2023-07-16T10:42:37;5.43;;;3.40;;
19183;SDS011;9724;51.194;6.856;2023-07-16T10:45:04;5.07;;;3.10;;
19183;SDS011;9724;51.194;6.856;2023-07-16T10:47:31;5.80;;;3.10;;
19183;SDS011;9724;51.194;6.856;2023-07-16T10:49:59;6.47;;;3.30;;
19183;SDS011;9724;51.194;6.856;2023-07-16T10:52:25;5.83;;;3.00;;
19183;SDS011;9724;51.194;6.856;2023-07-16T10:54:52;7.73;;;3.57;;
19183;SDS011;9724;51.194;6.856;2023-07-16T10:57:20;3.70;;;3.27;;
19183;SDS011;9724;51.194;6.856;2023-07-16T10:59:48;5.50;;;3.30;;
19183;SDS011;9724;51.194;6.856;2023-07-16T11:02:15;5.37;;;3.07;;
19183;SDS011;9724;51.194;6.856;2023-07-16T11:04:42;7.03;;;3.00;;
19183;SDS011;9724;51.194;6.856;2023-07-16T11:07:10;8.53;;;3.63;;
19183;SDS011;9724;51.194;6.856;2023-07-16T11:09:40;6.27;;;3.07;;
19183;SDS011;9724;51.194;6.856;2023-07-16T11:12:08;6.63;;;3.27;;
19183;SDS011;9724;51.194;6.856;2023-07-16T11:14:39;4.90;;;2.80;;
19183;SDS011;9724;51.194;6.856;2023-07-16T11:17:08;5.00;;;2.90;;
19183;SDS011;9724;51.194;6.856;2023-07-16T11:19:34;5.23;;;3.30;;
19183;SDS011;9724;51.194;6.856;2023-07-16T11:22:01;4.67;;;3.10;;
19183;SDS011;9724;51.194;6.856;2023-07-16T11:24:28;5.70;;;3.10;;
19183;SDS011;9724;51.194;6.856;2023-07-16T11:27:02;4.87;;;3.33;;
19183;SDS011;9724;51.194;6.856;2023-07-16T11:29:33;6.10;;;3.13;;
19183;SDS011;9724;51.194;6.856;2023-07-16T11:32:01;6.93;;;2.67;;
19183;SDS011;9724;51.194;6.856;2023-07-16T11:34:27;6.80;;;3.20;;
19183;SDS011;9724;51.194;6.856;2023-07-16T11:36:54;4.70;;;2.70;;
19183;SDS011;9724;51.194;6.856;2023-07-16T11:39:20;5.63;;;3.03;;
19183;SDS011;9724;51.194;6.856;2023-07-16T11:41:53;7.33;;;3.13;;
19183;SDS011;9724;51.194;6.856;2023-07-16T11:44:24;4.33;;;2.90;;
19183;SDS011;9724;51.194;6.856;2023-07-16T11:46:50;4.83;;;2.83;;
19183;SDS011;9724;51.194;6.856;2023-07-16T11:49:17;5.07;;;2.83;;
19183;SDS011;9724;51.194;6.856;2023-07-16T11:51:43;7.27;;;3.13;;
19183;SDS011;9724;51.194;6.856;2023-07-16T11:54:10;4.57;;;2.73;;
19183;SDS011;9724;51.194;6.856;2023-07-16T11:56:36;4.13;;;3.10;;
19183;SDS011;9724;51.194;6.856;2023-07-16T11:59:03;8.93;;;3.67;;
19183;SDS011;9724;51.194;6.856;2023-07-16T12:01:29;4.20;;;3.00;;
19183;SDS011;9724;51.194;6.856;2023-07-16T12:03:55;6.47;;;2.83;;
19183;SDS011;9724;51.194;6.856;2023-07-16T12:06:22;4.03;;;2.77;;
19183;SDS011;9724;51.194;6.856;2023-07-16T12:08:49;11.07;;;2.90;;
19183;SDS011;9724;51.194;6.856;2023-07-16T12:11:15;5.17;;;3.07;;
19183;SDS011;9724;51.194;6.856;2023-07-16T12:13:42;6.67;;;3.07;;
19183;SDS011;9724;51.194;6.856;2023-07-16T12:16:08;4.70;;;2.70;;
19183;SDS011;9724;51.194;6.856;2023-07-16T12:18:34;5.87;;;3.17;;
19183;SDS011;9724;51.194;6.856;2023-07-16T12:21:01;5.13;;;3.03;;
19183;SDS011;9724;51.194;6.856;2023-07-16T12:23:29;5.50;;;2.93;;
19183;SDS011;9724;51.194;6.856;2023-07-16T12:25:55;7.70;;;3.00;;
19183;SDS011;9724;51.194;6.856;2023-07-16T12:28:22;3.80;;;3.27;;
19183;SDS011;9724;51.194;6.856;2023-07-16T12:30:48;5.80;;;3.20;;
19183;SDS011;9724;51.194;6.856;2023-07-16T12:33:15;4.90;;;3.30;;
19183;SDS011;9724;51.194;6.856;2023-07-16T12:35:41;7.37;;;2.90;;
19183;SDS011;9724;51.194;6.856;2023-07-16T12:38:08;6.30;;;3.13;;
19183;SDS011;9724;51.194;6.856;2023-07-16T12:40:36;2.87;;;2.67;;
19183;SDS011;9724;51.194;6.856;2023-07-16T12:43:06;5.30;;;3.10;;
19183;SDS011;9724;51.194;6.856;2023-07-16T12:45:32;6.23;;;3.30;;
19183;SDS011;9724;51.194;6.856;2023-07-16T12:47:59;9.80;;;3.50;;
19183;SDS011;9724;51.194;6.856;2023-07-16T12:50:25;3.63;;;2.93;;
19183;SDS011;9724;51.194;6.856;2023-07-16T12:52:54;8.50;;;2.93;;
19183;SDS011;9724;51.194;6.856;2023-07-16T12:55:20;5.50;;;2.50;;
19183;SDS011;9724;51.194;6.856;2023-07-16T12:57:48;4.43;;;3.03;;
19183;SDS011;9724;51.194;6.856;2023-07-16T13:00:14;5.23;;;2.83;;
19183;SDS011;9724;51.194;6.856;2023-07-16T13:02:40;4.87;;;3.20;;
19183;SDS011;9724;51.194;6.856;2023-07-16T13:05:07;3.57;;;3.00;;
19183;SDS011;9724;51.194;6.856;2023-07-16T13:07:34;2.97;;;2.63;;
19183;SDS011;9724;51.194;6.856;2023-07-16T13:10:00;5.53;;;3.10;;
19183;SDS011;9724;51.194;6.856;2023-07-16T13:12:43;4.70;;;2.90;;
19183;SDS011;9724;51.194;6.856;2023-07-16T13:15:10;2.83;;;2.50;;
19183;SDS011;9724;51.194;6.856;2023-07-16T13:17:36;4.73;;;3.03;;
19183;SDS011;9724;51.194;6.856;2023-07-16T13:20:03;9.20;;;3.10;;
19183;SDS011;9724;51.194;6.856;2023-07-16T13:22:30;2.87;;;2.60;;
19183;SDS011;9724;51.194;6.856;2023-07-16T13:24:57;3.87;;;2.70;;
19183;SDS011;9724;51.194;6.856;2023-07-16T13:27:23;4.03;;;2.43;;
19183;SDS011;9724;51.194;6.856;2023-07-16T13:29:50;5.23;;;2.77;;
19183;SDS011;9724;51.194;6.856;2023-07-16T13:32:17;5.93;;;3.13;;
19183;SDS011;9724;51.194;6.856;2023-07-16T13:34:43;4.40;;;2.80;;
19183;SDS011;9724;51.194;6.856;2023-07-16T13:37:10;5.73;;;2.73;;
19183;SDS011;9724;51.194;6.856;2023-07-16T13:39:36;4.73;;;2.50;;
19183;SDS011;9724;51.194;6.856;2023-07-16T13:42:02;3.40;;;2.50;;
19183;SDS011;9724;51.194;6.856;2023-07-16T13:44:48;6.33;;;2.87;;
19183;SDS011;9724;51.194;6.856;2023-07-16T13:47:14;5.77;;;2.80;;
19183;SDS011;9724;51.194;6.856;2023-07-16T13:49:41;4.57;;;2.90;;
19183;SDS011;9724;51.194;6.856;2023-07-16T13:52:07;6.50;;;2.50;;
19183;SDS011;9724;51.194;6.856;2023-07-16T13:54:34;5.87;;;2.60;;
19183;SDS011;9724;51.194;6.856;2023-07-16T13:57:00;9.33;;;2.50;;
19183;SDS011;9724;51.194;6.856;2023-07-16T13:59:27;4.13;;;2.50;;
19183;SDS011;9724;51.194;6.856;2023-07-16T14:01:58;7.30;;;2.63;;
19183;SDS011;9724;51.194;6.856;2023-07-16T14:04:25;5.40;;;3.10;;
19183;SDS011;9724;51.194;6.856;2023-07-16T14:06:52;2.93;;;2.43;;
19183;SDS011;9724;51.194;6.856;2023-07-16T14:09:21;5.83;;;2.63;;
19183;SDS011;9724;51.194;6.856;2023-07-16T14:11:47;5.70;;;2.57;;
19183;SDS011;9724;51.194;6.856;2023-07-16T14:14:14;6.10;;;2.70;;
19183;SDS011;9724;51.194;6.856;2023-07-16T14:16:40;6.03;;;2.97;;
19183;SDS011;9724;51.194;6.856;2023-07-16T14:19:07;10.10;;;2.67;;
19183;SDS011;9724;51.194;6.856;2023-07-16T14:21:33;6.00;;;2.90;;
19183;SDS011;9724;51.194;6.856;2023-07-16T14:24:00;4.53;;;2.67;;
19183;SDS011;9724;51.194;6.856;2023-07-16T14:26:27;6.70;;;2.30;;
19183;SDS011;9724;51.194;6.856;2023-07-16T14:28:53;3.90;;;2.17;;
19183;SDS011;9724;51.194;6.856;2023-07-16T14:31:19;3.77;;;2.40;;
19183;SDS011;9724;51.194;6.856;2023-07-16T14:33:45;3.07;;;2.77;;
19183;SDS011;9724;51.194;6.856;2023-07-16T14:36:12;8.20;;;2.93;;
19183;SDS011;9724;51.194;6.856;2023-07-16T14:38:38;5.23;;;2.87;;
19183;SDS011;9724;51.194;6.856;2023-07-16T14:41:05;7.13;;;2.53;;
19183;SDS011;9724;51.194;6.856;2023-07-16T14:43:33;6.50;;;3.00;;
19183;SDS011;9724;51.194;6.856;2023-07-16T14:45:59;4.13;;;2.70;;
19183;SDS011;9724;51.194;6.856;2023-07-16T14:48:26;6.27;;;3.10;;
19183;SDS011;9724;51.194;6.856;2023-07-16T14:50:53;4.97;;;2.67;;
19183;SDS011;9724;51.194;6.856;2023-07-16T14:53:22;4.90;;;2.53;;
19183;SDS011;9724;51.194;6.856;2023-07-16T14:55:48;4.70;;;2.90;;
19183;SDS011;9724;51.194;6.856;2023-07-16T14:58:17;5.83;;;2.53;;
19183;SDS011;9724;51.194;6.856;2023-07-16T15:00:45;7.17;;;2.87;;
19183;SDS011;9724;51.194;6.856;2023-07-16T15:03:11;5.40;;;2.60;;